sensor_id;sensor_type;location;lat;lon;timestamp;P1;durP1;ratioP1;P2;durP2;ratioP2
13279;SDS011;6708;49.814;8.652;2024-01-30T00:00:56;6.13;;;5.63;;
13279;SDS011;6708;49.814;8.652;2024-01-30T00:03:25;5.87;;;5.37;;
13279;SDS011;6708;49.814;8.652;2024-01-30T00:05:54;5.70;;;5.30;;
13279;SDS011;6708;49.814;8.652;2024-01-30T00:08:23;5.67;;;5.27;;
13279;SDS011;6708;49.814;8.652;2024-01-30T00:10:51;4.77;;;4.30;;
13279;SDS011;6708;49.814;8.652;2024-01-30T00:13:20;7.73;;;5.70;;
13279;SDS011;6708;49.814;8.652;2024-01-30T00:15:48;5.80;;;5.17;;
13279;SDS011;6708;49.814;8.652;2024-01-30T00:18:19;6.23;;;5.73;;
13279;SDS011;6708;49.814;8.652;2024-01-30T00:20:51;6.87;;;6.13;;
13279;SDS011;6708;49.814;8.652;2024-01-30T00:23:19;6.07;;;5.57;;
13279;SDS011;6708;49.814;8.652;2024-01-30T00:25:47;6.13;;;5.63;;
13279;SDS011;6708;49.814;8.652;2024-01-30T00:28:16;6.47;;;5.97;;
13279;SDS011;6708;49.814;8.652;2024-01-30T00:30:44;6.33;;;5.83;;
13279;SDS011;6708;49.814;8.652;2024-01-30T00:33:13;7.27;;;5.77;;
13279;SDS011;6708;49.814;8.652;2024-01-30T00:35:43;5.93;;;5.37;;
13279;SDS011;6708;49.814;8.652;2024-01-30T00:38:12;5.27;;;4.83;;
13279;SDS011;6708;49.814;8.652;2024-01-30T00:40:40;5.83;;;4.37;;
13279;SDS011;6708;49.814;8.652;2024-01-30T00:43:09;4.27;;;3.87;;
13279;SDS011;6708;49.814;8.652;2024-01-30T00:45:37;6.70;;;4.20;;
13279;SDS011;6708;49.814;8.652;2024-01-30T00:48:06;5.40;;;3.87;;
13279;SDS011;6708;49.814;8.652;2024-01-30T00:50:34;4.33;;;4.00;;
13279;SDS011;6708;49.814;8.652;2024-01-30T00:53:05;3.40;;;3.10;;
13279;SDS011;6708;49.814;8.652;2024-01-30T00:55:33;4.03;;;3.67;;
13279;SDS011;6708;49.814;8.652;2024-01-30T00:58:02;4.20;;;3.90;;
13279;SDS011;6708;49.814;8.652;2024-01-30T01:00:28;4.23;;;3.93;;
13279;SDS011;6708;49.814;8.652;2024-01-30T01:02:57;5.73;;;3.67;;
13279;SDS011;6708;49.814;8.652;2024-01-30T01:05:25;3.53;;;3.30;;
13279;SDS011;6708;49.814;8.652;2024-01-30T01:07:54;3.27;;;3.07;;
13279;SDS011;6708;49.814;8.652;2024-01-30T01:10:25;3.13;;;2.93;;
13279;SDS011;6708;49.814;8.652;2024-01-30T01:12:53;4.23;;;3.87;;
13279;SDS011;6708;49.814;8.652;2024-01-30T01:15:22;6.23;;;5.00;;
13279;SDS011;6708;49.814;8.652;2024-01-30T01:17:50;5.70;;;4.73;;
13279;SDS011;6708;49.814;8.652;2024-01-30T01:20:18;7.63;;;4.40;;
13279;SDS011;6708;49.814;8.652;2024-01-30T01:22:47;4.50;;;4.20;;
13279;SDS011;6708;49.814;8.652;2024-01-30T01:25:15;5.07;;;4.57;;
13279;SDS011;6708;49.814;8.652;2024-01-30T01:27:47;5.93;;;5.13;;
13279;SDS011;6708;49.814;8.652;2024-01-30T01:30:17;5.40;;;4.90;;
13279;SDS011;6708;49.814;8.652;2024-01-30T01:32:47;7.27;;;4.93;;
13279;SDS011;6708;49.814;8.652;2024-01-30T01:35:20;4.90;;;4.50;;
13279;SDS011;6708;49.814;8.652;2024-01-30T01:37:52;5.57;;;4.90;;
13279;SDS011;6708;49.814;8.652;2024-01-30T01:40:24;4.70;;;4.10;;
13279;SDS011;6708;49.814;8.652;2024-01-30T01:42:56;4.50;;;4.10;;
13279;SDS011;6708;49.814;8.652;2024-01-30T01:45:24;5.63;;;5.03;;
13279;SDS011;6708;49.814;8.652;2024-01-30T01:47:53;5.20;;;4.80;;
13279;SDS011;6708;49.814;8.652;2024-01-30T01:50:21;5.10;;;4.70;;
13279;SDS011;6708;49.814;8.652;2024-01-30T01:52:51;5.57;;;4.97;;
13279;SDS011;6708;49.814;8.652;2024-01-30T01:55:20;5.20;;;4.70;;
13279;SDS011;6708;49.814;8.652;2024-01-30T01:57:52;6.87;;;4.00;;
13279;SDS011;6708;49.814;8.652;2024-01-30T02:00:23;6.00;;;5.50;;
13279;SDS011;6708;49.814;8.652;2024-01-30T02:02:51;5.70;;;5.20;;
13279;SDS011;6708;49.814;8.652;2024-01-30T02:05:21;5.70;;;5.03;;
13279;SDS011;6708;49.814;8.652;2024-01-30T02:07:50;9.13;;;5.43;;
13279;SDS011;6708;49.814;8.652;2024-01-30T02:10:19;4.67;;;4.37;;
13279;SDS011;6708;49.814;8.652;2024-01-30T02:12:48;6.47;;;5.17;;
13279;SDS011;6708;49.814;8.652;2024-01-30T02:15:16;3.90;;;3.70;;
13279;SDS011;6708;49.814;8.652;2024-01-30T02:17:48;4.73;;;4.20;;
13279;SDS011;6708;49.814;8.652;2024-01-30T02:20:16;3.50;;;3.30;;
13279;SDS011;6708;49.814;8.652;2024-01-30T02:22:47;4.13;;;3.83;;
13279;SDS011;6708;49.814;8.652;2024-01-30T02:25:16;5.13;;;4.53;;
13279;SDS011;6708;49.814;8.652;2024-01-30T02:27:45;4.10;;;3.80;;
13279;SDS011;6708;49.814;8.652;2024-01-30T02:30:13;4.70;;;4.30;;
13279;SDS011;6708;49.814;8.652;2024-01-30T02:32:42;4.27;;;3.90;;
13279;SDS011;6708;49.814;8.652;2024-01-30T02:35:10;4.33;;;4.03;;
13279;SDS011;6708;49.814;8.652;2024-01-30T02:37:38;5.10;;;4.17;;
13279;SDS011;6708;49.814;8.652;2024-01-30T02:40:10;3.73;;;3.43;;
13279;SDS011;6708;49.814;8.652;2024-01-30T02:42:39;4.40;;;3.67;;
13279;SDS011;6708;49.814;8.652;2024-01-30T02:45:08;4.73;;;3.93;;
13279;SDS011;6708;49.814;8.652;2024-01-30T02:47:38;4.00;;;3.53;;
13279;SDS011;6708;49.814;8.652;2024-01-30T02:50:06;3.87;;;3.57;;
13279;SDS011;6708;49.814;8.652;2024-01-30T02:52:35;3.63;;;3.40;;
13279;SDS011;6708;49.814;8.652;2024-01-30T02:55:04;4.17;;;3.03;;
13279;SDS011;6708;49.814;8.652;2024-01-30T02:57:35;3.80;;;3.60;;
13279;SDS011;6708;49.814;8.652;2024-01-30T03:00:05;3.90;;;3.60;;
13279;SDS011;6708;49.814;8.652;2024-01-30T03:02:35;4.77;;;4.23;;
13279;SDS011;6708;49.814;8.652;2024-01-30T03:05:05;4.53;;;4.23;;
13279;SDS011;6708;49.814;8.652;2024-01-30T03:07:31;4.10;;;3.73;;
13279;SDS011;6708;49.814;8.652;2024-01-30T03:09:59;5.13;;;4.63;;
13279;SDS011;6708;49.814;8.652;2024-01-30T03:12:28;5.13;;;4.53;;
13279;SDS011;6708;49.814;8.652;2024-01-30T03:14:59;5.17;;;4.73;;
13279;SDS011;6708;49.814;8.652;2024-01-30T03:17:27;5.17;;;4.27;;
13279;SDS011;6708;49.814;8.652;2024-01-30T03:19:56;4.57;;;4.20;;
13279;SDS011;6708;49.814;8.652;2024-01-30T03:22:24;4.27;;;3.93;;
13279;SDS011;6708;49.814;8.652;2024-01-30T03:24:52;4.70;;;4.00;;
13279;SDS011;6708;49.814;8.652;2024-01-30T03:27:21;4.73;;;4.33;;
13279;SDS011;6708;49.814;8.652;2024-01-30T03:29:49;4.23;;;3.97;;
13279;SDS011;6708;49.814;8.652;2024-01-30T03:32:20;4.37;;;3.97;;
13279;SDS011;6708;49.814;8.652;2024-01-30T03:34:48;3.80;;;3.60;;
13279;SDS011;6708;49.814;8.652;2024-01-30T03:37:17;4.30;;;3.90;;
13279;SDS011;6708;49.814;8.652;2024-01-30T03:39:45;4.23;;;3.93;;
13279;SDS011;6708;49.814;8.652;2024-01-30T03:42:13;3.77;;;3.40;;
13279;SDS011;6708;49.814;8.652;2024-01-30T03:44:42;4.40;;;4.00;;
13279;SDS011;6708;49.814;8.652;2024-01-30T03:47:10;4.47;;;4.07;;
13279;SDS011;6708;49.814;8.652;2024-01-30T03:49:41;4.20;;;3.80;;
13279;SDS011;6708;49.814;8.652;2024-01-30T03:52:10;3.80;;;3.50;;
13279;SDS011;6708;49.814;8.652;2024-01-30T03:54:38;4.10;;;3.80;;
13279;SDS011;6708;49.814;8.652;2024-01-30T03:57:06;4.17;;;3.80;;
13279;SDS011;6708;49.814;8.652;2024-01-30T03:59:36;5.13;;;4.73;;
13279;SDS011;6708;49.814;8.652;2024-01-30T04:02:05;4.83;;;4.50;;
13279;SDS011;6708;49.814;8.652;2024-01-30T04:04:33;4.87;;;4.40;;
13279;SDS011;6708;49.814;8.652;2024-01-30T04:07:04;5.10;;;4.60;;
13279;SDS011;6708;49.814;8.652;2024-01-30T04:09:33;4.33;;;4.03;;
13279;SDS011;6708;49.814;8.652;2024-01-30T04:12:01;4.70;;;4.30;;
13279;SDS011;6708;49.814;8.652;2024-01-30T04:14:30;5.73;;;5.13;;
13279;SDS011;6708;49.814;8.652;2024-01-30T04:16:58;7.73;;;4.80;;
13279;SDS011;6708;49.814;8.652;2024-01-30T04:19:30;5.47;;;4.43;;
13279;SDS011;6708;49.814;8.652;2024-01-30T04:21:58;7.90;;;4.73;;
13279;SDS011;6708;49.814;8.652;2024-01-30T04:24:29;5.77;;;4.53;;
13279;SDS011;6708;49.814;8.652;2024-01-30T04:26:57;4.43;;;3.97;;
13279;SDS011;6708;49.814;8.652;2024-01-30T04:29:25;5.20;;;4.70;;
13279;SDS011;6708;49.814;8.652;2024-01-30T04:31:54;5.13;;;4.60;;
13279;SDS011;6708;49.814;8.652;2024-01-30T04:34:23;5.37;;;4.30;;
13279;SDS011;6708;49.814;8.652;2024-01-30T04:36:51;5.50;;;5.10;;
13279;SDS011;6708;49.814;8.652;2024-01-30T04:39:19;4.47;;;4.17;;
13279;SDS011;6708;49.814;8.652;2024-01-30T04:41:50;4.87;;;4.50;;
13279;SDS011;6708;49.814;8.652;2024-01-30T04:44:18;4.83;;;4.33;;
13279;SDS011;6708;49.814;8.652;2024-01-30T04:46:47;7.47;;;4.20;;
13279;SDS011;6708;49.814;8.652;2024-01-30T04:49:16;4.60;;;4.10;;
13279;SDS011;6708;49.814;8.652;2024-01-30T04:51:44;4.77;;;4.27;;
13279;SDS011;6708;49.814;8.652;2024-01-30T04:54:12;4.63;;;4.23;;
13279;SDS011;6708;49.814;8.652;2024-01-30T04:56:41;4.53;;;4.10;;
13279;SDS011;6708;49.814;8.652;2024-01-30T04:59:12;6.43;;;5.00;;
13279;SDS011;6708;49.814;8.652;2024-01-30T05:01:40;5.43;;;4.83;;
13279;SDS011;6708;49.814;8.652;2024-01-30T05:04:08;4.90;;;4.50;;
13279;SDS011;6708;49.814;8.652;2024-01-30T05:06:37;5.23;;;4.43;;
13279;SDS011;6708;49.814;8.652;2024-01-30T05:09:05;5.83;;;5.27;;
13279;SDS011;6708;49.814;8.652;2024-01-30T05:11:36;5.00;;;4.50;;
13279;SDS011;6708;49.814;8.652;2024-01-30T05:14:05;4.63;;;4.23;;
13279;SDS011;6708;49.814;8.652;2024-01-30T05:16:36;4.87;;;4.47;;
13279;SDS011;6708;49.814;8.652;2024-01-30T05:19:05;5.93;;;5.43;;
13279;SDS011;6708;49.814;8.652;2024-01-30T05:21:33;5.00;;;4.60;;
13279;SDS011;6708;49.814;8.652;2024-01-30T05:24:02;5.33;;;4.83;;
13279;SDS011;6708;49.814;8.652;2024-01-30T05:26:27;6.13;;;4.90;;
13279;SDS011;6708;49.814;8.652;2024-01-30T05:28:56;5.27;;;4.77;;
13279;SDS011;6708;49.814;8.652;2024-01-30T05:31:24;7.43;;;5.37;;
13279;SDS011;6708;49.814;8.652;2024-01-30T05:33:56;6.57;;;5.57;;
13279;SDS011;6708;49.814;8.652;2024-01-30T05:36:24;5.00;;;4.60;;
13279;SDS011;6708;49.814;8.652;2024-01-30T05:38:53;5.10;;;4.70;;
13279;SDS011;6708;49.814;8.652;2024-01-30T05:41:21;7.13;;;5.07;;
13279;SDS011;6708;49.814;8.652;2024-01-30T05:43:50;4.90;;;4.50;;
13279;SDS011;6708;49.814;8.652;2024-01-30T05:46:18;5.30;;;4.80;;
13279;SDS011;6708;49.814;8.652;2024-01-30T05:48:46;5.00;;;4.33;;
13279;SDS011;6708;49.814;8.652;2024-01-30T05:51:17;5.47;;;4.43;;
13279;SDS011;6708;49.814;8.652;2024-01-30T05:53:46;5.03;;;4.60;;
13279;SDS011;6708;49.814;8.652;2024-01-30T05:56:14;4.10;;;3.80;;
13279;SDS011;6708;49.814;8.652;2024-01-30T05:58:43;4.87;;;4.43;;
13279;SDS011;6708;49.814;8.652;2024-01-30T06:01:11;5.10;;;4.63;;
13279;SDS011;6708;49.814;8.652;2024-01-30T06:03:39;4.70;;;4.30;;
13279;SDS011;6708;49.814;8.652;2024-01-30T06:06:09;5.00;;;4.50;;
13279;SDS011;6708;49.814;8.652;2024-01-30T06:08:40;5.33;;;4.57;;
13279;SDS011;6708;49.814;8.652;2024-01-30T06:11:10;5.50;;;4.67;;
13279;SDS011;6708;49.814;8.652;2024-01-30T06:13:38;5.70;;;5.00;;
13279;SDS011;6708;49.814;8.652;2024-01-30T06:16:11;8.03;;;5.47;;
13279;SDS011;6708;49.814;8.652;2024-01-30T06:18:39;5.07;;;4.57;;
13279;SDS011;6708;49.814;8.652;2024-01-30T06:21:07;5.13;;;4.67;;
13279;SDS011;6708;49.814;8.652;2024-01-30T06:23:36;9.00;;;5.47;;
13279;SDS011;6708;49.814;8.652;2024-01-30T06:26:07;5.90;;;4.90;;
13279;SDS011;6708;49.814;8.652;2024-01-30T06:28:35;7.63;;;4.97;;
13279;SDS011;6708;49.814;8.652;2024-01-30T06:31:04;8.70;;;6.30;;
13279;SDS011;6708;49.814;8.652;2024-01-30T06:33:34;5.57;;;4.97;;
13279;SDS011;6708;49.814;8.652;2024-01-30T06:36:03;6.40;;;5.80;;
13279;SDS011;6708;49.814;8.652;2024-01-30T06:38:32;6.63;;;5.93;;
13279;SDS011;6708;49.814;8.652;2024-01-30T06:41:00;6.07;;;5.57;;
13279;SDS011;6708;49.814;8.652;2024-01-30T06:43:31;6.77;;;5.70;;
13279;SDS011;6708;49.814;8.652;2024-01-30T06:46:00;6.67;;;5.60;;
13279;SDS011;6708;49.814;8.652;2024-01-30T06:48:28;8.00;;;5.67;;
13279;SDS011;6708;49.814;8.652;2024-01-30T06:50:56;5.70;;;5.27;;
13279;SDS011;6708;49.814;8.652;2024-01-30T06:53:25;6.57;;;5.43;;
13279;SDS011;6708;49.814;8.652;2024-01-30T06:55:54;6.53;;;5.13;;
13279;SDS011;6708;49.814;8.652;2024-01-30T06:58:22;6.80;;;6.10;;
13279;SDS011;6708;49.814;8.652;2024-01-30T07:00:53;8.87;;;6.00;;
13279;SDS011;6708;49.814;8.652;2024-01-30T07:03:22;6.77;;;6.07;;
13279;SDS011;6708;49.814;8.652;2024-01-30T07:05:50;6.17;;;5.57;;
13279;SDS011;6708;49.814;8.652;2024-01-30T07:08:19;7.60;;;6.20;;
13279;SDS011;6708;49.814;8.652;2024-01-30T07:10:47;6.67;;;6.07;;
13279;SDS011;6708;49.814;8.652;2024-01-30T07:13:16;6.33;;;5.30;;
13279;SDS011;6708;49.814;8.652;2024-01-30T07:15:44;6.27;;;5.60;;
13279;SDS011;6708;49.814;8.652;2024-01-30T07:18:17;5.97;;;5.47;;
13279;SDS011;6708;49.814;8.652;2024-01-30T07:20:45;16.37;;;6.27;;
13279;SDS011;6708;49.814;8.652;2024-01-30T07:23:15;5.97;;;5.47;;
13279;SDS011;6708;49.814;8.652;2024-01-30T07:25:44;6.23;;;5.17;;
13279;SDS011;6708;49.814;8.652;2024-01-30T07:28:14;6.27;;;5.70;;
13279;SDS011;6708;49.814;8.652;2024-01-30T07:30:42;9.53;;;5.97;;
13279;SDS011;6708;49.814;8.652;2024-01-30T07:33:11;6.23;;;5.63;;
13279;SDS011;6708;49.814;8.652;2024-01-30T07:35:42;10.63;;;6.10;;
13279;SDS011;6708;49.814;8.652;2024-01-30T07:38:11;5.80;;;5.23;;
13279;SDS011;6708;49.814;8.652;2024-01-30T07:40:39;7.03;;;6.33;;
13279;SDS011;6708;49.814;8.652;2024-01-30T07:43:07;10.97;;;5.90;;
13279;SDS011;6708;49.814;8.652;2024-01-30T07:45:36;6.43;;;5.40;;
13279;SDS011;6708;49.814;8.652;2024-01-30T07:48:05;6.93;;;6.23;;
13279;SDS011;6708;49.814;8.652;2024-01-30T07:50:34;7.17;;;6.47;;
13279;SDS011;6708;49.814;8.652;2024-01-30T07:53:05;6.97;;;6.27;;
13279;SDS011;6708;49.814;8.652;2024-01-30T07:55:33;7.27;;;6.00;;
13279;SDS011;6708;49.814;8.652;2024-01-30T07:58:01;7.13;;;6.03;;
13279;SDS011;6708;49.814;8.652;2024-01-30T08:00:30;6.73;;;6.13;;
13279;SDS011;6708;49.814;8.652;2024-01-30T08:03:00;6.60;;;6.07;;
13279;SDS011;6708;49.814;8.652;2024-01-30T08:05:28;9.07;;;7.03;;
13279;SDS011;6708;49.814;8.652;2024-01-30T08:07:56;7.00;;;5.70;;
13279;SDS011;6708;49.814;8.652;2024-01-30T08:10:27;11.40;;;7.13;;
13279;SDS011;6708;49.814;8.652;2024-01-30T08:12:56;7.10;;;6.43;;
13279;SDS011;6708;49.814;8.652;2024-01-30T08:15:24;7.40;;;6.70;;
13279;SDS011;6708;49.814;8.652;2024-01-30T08:17:52;7.10;;;6.40;;
13279;SDS011;6708;49.814;8.652;2024-01-30T08:20:24;9.57;;;6.63;;
13279;SDS011;6708;49.814;8.652;2024-01-30T08:22:52;7.37;;;6.67;;
13279;SDS011;6708;49.814;8.652;2024-01-30T08:25:21;6.47;;;5.97;;
13279;SDS011;6708;49.814;8.652;2024-01-30T08:27:52;7.43;;;6.77;;
13279;SDS011;6708;49.814;8.652;2024-01-30T08:30:20;7.67;;;6.40;;
13279;SDS011;6708;49.814;8.652;2024-01-30T08:32:48;6.97;;;6.30;;
13279;SDS011;6708;49.814;8.652;2024-01-30T08:35:17;6.67;;;6.17;;
13279;SDS011;6708;49.814;8.652;2024-01-30T08:37:47;7.20;;;6.50;;
13279;SDS011;6708;49.814;8.652;2024-01-30T08:40:15;7.17;;;6.50;;
13279;SDS011;6708;49.814;8.652;2024-01-30T08:42:44;6.87;;;6.23;;
13279;SDS011;6708;49.814;8.652;2024-01-30T08:45:15;6.63;;;5.77;;
13279;SDS011;6708;49.814;8.652;2024-01-30T08:47:44;8.70;;;6.20;;
13279;SDS011;6708;49.814;8.652;2024-01-30T08:50:12;7.10;;;6.50;;
13279;SDS011;6708;49.814;8.652;2024-01-30T08:52:41;7.53;;;6.83;;
13279;SDS011;6708;49.814;8.652;2024-01-30T08:55:09;7.27;;;6.63;;
13279;SDS011;6708;49.814;8.652;2024-01-30T08:57:38;6.77;;;6.17;;
13279;SDS011;6708;49.814;8.652;2024-01-30T09:00:06;6.83;;;6.23;;
13279;SDS011;6708;49.814;8.652;2024-01-30T09:02:39;8.10;;;7.20;;
13279;SDS011;6708;49.814;8.652;2024-01-30T09:05:07;9.67;;;6.87;;
13279;SDS011;6708;49.814;8.652;2024-01-30T09:07:36;8.93;;;7.23;;
13279;SDS011;6708;49.814;8.652;2024-01-30T09:10:05;7.93;;;7.23;;
13279;SDS011;6708;49.814;8.652;2024-01-30T09:12:35;6.70;;;6.10;;
13279;SDS011;6708;49.814;8.652;2024-01-30T09:15:04;7.77;;;6.73;;
13279;SDS011;6708;49.814;8.652;2024-01-30T09:17:33;7.17;;;6.63;;
13279;SDS011;6708;49.814;8.652;2024-01-30T09:20:05;8.10;;;7.23;;
13279;SDS011;6708;49.814;8.652;2024-01-30T09:22:34;10.03;;;7.60;;
13279;SDS011;6708;49.814;8.652;2024-01-30T09:25:03;11.20;;;7.13;;
13279;SDS011;6708;49.814;8.652;2024-01-30T09:27:32;8.83;;;8.00;;
13279;SDS011;6708;49.814;8.652;2024-01-30T09:30:00;12.33;;;8.10;;
13279;SDS011;6708;49.814;8.652;2024-01-30T09:32:29;7.50;;;6.80;;
13279;SDS011;6708;49.814;8.652;2024-01-30T09:34:57;8.47;;;7.77;;
13279;SDS011;6708;49.814;8.652;2024-01-30T09:37:28;7.73;;;7.13;;
13279;SDS011;6708;49.814;8.652;2024-01-30T09:39:57;8.03;;;7.33;;
13279;SDS011;6708;49.814;8.652;2024-01-30T09:42:26;8.73;;;7.80;;
13279;SDS011;6708;49.814;8.652;2024-01-30T09:44:56;9.27;;;8.47;;
13279;SDS011;6708;49.814;8.652;2024-01-30T09:47:25;9.47;;;8.50;;
13279;SDS011;6708;49.814;8.652;2024-01-30T09:49:53;9.57;;;8.60;;
13279;SDS011;6708;49.814;8.652;2024-01-30T09:52:23;9.43;;;8.53;;
13279;SDS011;6708;49.814;8.652;2024-01-30T09:54:54;9.17;;;8.20;;
13279;SDS011;6708;49.814;8.652;2024-01-30T09:57:23;11.27;;;8.87;;
13279;SDS011;6708;49.814;8.652;2024-01-30T09:59:51;9.97;;;9.07;;
13279;SDS011;6708;49.814;8.652;2024-01-30T10:02:22;10.40;;;9.27;;
13279;SDS011;6708;49.814;8.652;2024-01-30T10:04:51;10.40;;;9.23;;
13279;SDS011;6708;49.814;8.652;2024-01-30T10:07:20;9.83;;;8.83;;
13279;SDS011;6708;49.814;8.652;2024-01-30T10:09:48;10.63;;;9.53;;
13279;SDS011;6708;49.814;8.652;2024-01-30T10:12:21;10.60;;;9.73;;
13279;SDS011;6708;49.814;8.652;2024-01-30T10:14:49;9.83;;;8.73;;
13279;SDS011;6708;49.814;8.652;2024-01-30T10:17:17;9.53;;;8.60;;
13279;SDS011;6708;49.814;8.652;2024-01-30T10:19:46;10.03;;;9.10;;
13279;SDS011;6708;49.814;8.652;2024-01-30T10:22:15;9.83;;;8.70;;
13279;SDS011;6708;49.814;8.652;2024-01-30T10:24:43;9.67;;;8.77;;
13279;SDS011;6708;49.814;8.652;2024-01-30T10:27:12;9.73;;;8.30;;
13279;SDS011;6708;49.814;8.652;2024-01-30T10:29:43;9.50;;;8.47;;
13279;SDS011;6708;49.814;8.652;2024-01-30T10:32:12;7.90;;;7.20;;
13279;SDS011;6708;49.814;8.652;2024-01-30T10:34:40;10.63;;;8.43;;
13279;SDS011;6708;49.814;8.652;2024-01-30T10:37:09;10.20;;;9.03;;
13279;SDS011;6708;49.814;8.652;2024-01-30T10:39:41;9.80;;;8.80;;
13279;SDS011;6708;49.814;8.652;2024-01-30T10:42:11;10.17;;;8.00;;
13279;SDS011;6708;49.814;8.652;2024-01-30T10:45:00;11.07;;;8.33;;
13279;SDS011;6708;49.814;8.652;2024-01-30T10:47:35;9.27;;;8.37;;
13279;SDS011;6708;49.814;8.652;2024-01-30T10:50:04;8.67;;;7.83;;
13279;SDS011;6708;49.814;8.652;2024-01-30T10:52:34;9.37;;;8.43;;
13279;SDS011;6708;49.814;8.652;2024-01-30T10:55:04;16.93;;;9.03;;
13279;SDS011;6708;49.814;8.652;2024-01-30T10:57:35;9.70;;;8.80;;
13279;SDS011;6708;49.814;8.652;2024-01-30T11:00:10;8.87;;;8.07;;
13279;SDS011;6708;49.814;8.652;2024-01-30T11:02:41;8.63;;;7.83;;
13279;SDS011;6708;49.814;8.652;2024-01-30T11:05:10;7.63;;;6.80;;
13279;SDS011;6708;49.814;8.652;2024-01-30T11:07:40;6.63;;;5.83;;
13279;SDS011;6708;49.814;8.652;2024-01-30T11:10:09;5.63;;;5.10;;
13279;SDS011;6708;49.814;8.652;2024-01-30T11:12:40;5.63;;;5.13;;
13279;SDS011;6708;49.814;8.652;2024-01-30T11:15:13;5.73;;;5.10;;
13279;SDS011;6708;49.814;8.652;2024-01-30T11:17:43;5.80;;;5.30;;
13279;SDS011;6708;49.814;8.652;2024-01-30T11:20:12;4.77;;;4.37;;
13279;SDS011;6708;49.814;8.652;2024-01-30T11:22:44;5.07;;;4.73;;
13279;SDS011;6708;49.814;8.652;2024-01-30T11:25:14;6.87;;;4.93;;
13279;SDS011;6708;49.814;8.652;2024-01-30T11:27:43;6.97;;;5.20;;
13279;SDS011;6708;49.814;8.652;2024-01-30T11:30:23;5.50;;;5.10;;
13279;SDS011;6708;49.814;8.652;2024-01-30T11:32:58;5.47;;;4.97;;
13279;SDS011;6708;49.814;8.652;2024-01-30T11:35:31;6.33;;;4.57;;
13279;SDS011;6708;49.814;8.652;2024-01-30T11:38:00;6.57;;;5.27;;
13279;SDS011;6708;49.814;8.652;2024-01-30T11:40:30;5.60;;;5.10;;
13279;SDS011;6708;49.814;8.652;2024-01-30T11:43:00;7.37;;;4.80;;
13279;SDS011;6708;49.814;8.652;2024-01-30T11:45:32;5.43;;;5.00;;
13279;SDS011;6708;49.814;8.652;2024-01-30T11:48:01;5.67;;;4.73;;
13279;SDS011;6708;49.814;8.652;2024-01-30T11:50:30;7.33;;;5.07;;
13279;SDS011;6708;49.814;8.652;2024-01-30T11:52:59;5.03;;;4.53;;
13279;SDS011;6708;49.814;8.652;2024-01-30T11:55:28;4.93;;;4.53;;
13279;SDS011;6708;49.814;8.652;2024-01-30T11:57:57;5.77;;;5.20;;
13279;SDS011;6708;49.814;8.652;2024-01-30T12:00:25;5.03;;;4.63;;
13279;SDS011;6708;49.814;8.652;2024-01-30T12:02:58;4.60;;;4.20;;
13279;SDS011;6708;49.814;8.652;2024-01-30T12:05:28;5.17;;;4.77;;
13279;SDS011;6708;49.814;8.652;2024-01-30T12:07:57;8.93;;;4.70;;
13279;SDS011;6708;49.814;8.652;2024-01-30T12:10:26;6.60;;;4.80;;
13279;SDS011;6708;49.814;8.652;2024-01-30T12:12:54;5.10;;;4.60;;
13279;SDS011;6708;49.814;8.652;2024-01-30T12:15:23;5.53;;;4.57;;
13279;SDS011;6708;49.814;8.652;2024-01-30T12:17:52;5.17;;;4.70;;
13279;SDS011;6708;49.814;8.652;2024-01-30T12:20:23;4.60;;;4.20;;
13279;SDS011;6708;49.814;8.652;2024-01-30T12:22:51;4.97;;;4.57;;
13279;SDS011;6708;49.814;8.652;2024-01-30T12:25:20;4.80;;;4.40;;
13279;SDS011;6708;49.814;8.652;2024-01-30T12:27:49;8.53;;;4.67;;
13279;SDS011;6708;49.814;8.652;2024-01-30T12:30:19;5.17;;;4.67;;
13279;SDS011;6708;49.814;8.652;2024-01-30T12:32:49;4.77;;;4.30;;
13279;SDS011;6708;49.814;8.652;2024-01-30T12:35:18;4.03;;;3.67;;
13279;SDS011;6708;49.814;8.652;2024-01-30T12:37:50;4.60;;;4.20;;
13279;SDS011;6708;49.814;8.652;2024-01-30T12:40:19;4.70;;;3.83;;
13279;SDS011;6708;49.814;8.652;2024-01-30T12:42:47;5.80;;;4.20;;
13279;SDS011;6708;49.814;8.652;2024-01-30T12:45:16;4.27;;;3.97;;
13279;SDS011;6708;49.814;8.652;2024-01-30T12:47:46;4.13;;;3.77;;
13279;SDS011;6708;49.814;8.652;2024-01-30T12:50:15;4.57;;;4.17;;
13279;SDS011;6708;49.814;8.652;2024-01-30T12:52:44;4.50;;;4.10;;
13279;SDS011;6708;49.814;8.652;2024-01-30T12:55:15;4.97;;;4.47;;
13279;SDS011;6708;49.814;8.652;2024-01-30T12:57:44;5.80;;;4.53;;
13279;SDS011;6708;49.814;8.652;2024-01-30T13:00:12;6.47;;;4.63;;
13279;SDS011;6708;49.814;8.652;2024-01-30T13:02:42;5.03;;;4.47;;
13279;SDS011;6708;49.814;8.652;2024-01-30T13:05:11;5.20;;;4.63;;
13279;SDS011;6708;49.814;8.652;2024-01-30T13:07:39;8.03;;;4.67;;
13279;SDS011;6708;49.814;8.652;2024-01-30T13:10:08;5.23;;;4.73;;
13279;SDS011;6708;49.814;8.652;2024-01-30T13:12:39;4.20;;;3.90;;
13279;SDS011;6708;49.814;8.652;2024-01-30T13:15:07;8.07;;;4.17;;
13279;SDS011;6708;49.814;8.652;2024-01-30T13:17:36;8.90;;;5.27;;
13279;SDS011;6708;49.814;8.652;2024-01-30T13:20:08;7.43;;;4.60;;
13279;SDS011;6708;49.814;8.652;2024-01-30T13:22:37;6.07;;;4.77;;
13279;SDS011;6708;49.814;8.652;2024-01-30T13:25:06;4.87;;;4.43;;
13279;SDS011;6708;49.814;8.652;2024-01-30T13:27:35;5.47;;;4.97;;
13279;SDS011;6708;49.814;8.652;2024-01-30T13:30:07;7.27;;;4.67;;
13279;SDS011;6708;49.814;8.652;2024-01-30T13:32:37;7.30;;;4.87;;
13279;SDS011;6708;49.814;8.652;2024-01-30T13:35:06;9.83;;;5.43;;
13279;SDS011;6708;49.814;8.652;2024-01-30T13:37:34;6.07;;;5.40;;
13279;SDS011;6708;49.814;8.652;2024-01-30T13:40:04;5.30;;;4.63;;
13279;SDS011;6708;49.814;8.652;2024-01-30T13:42:34;5.60;;;5.03;;
13279;SDS011;6708;49.814;8.652;2024-01-30T13:45:08;5.43;;;4.93;;
13279;SDS011;6708;49.814;8.652;2024-01-30T13:47:37;7.23;;;4.63;;
13279;SDS011;6708;49.814;8.652;2024-01-30T13:50:07;5.43;;;4.70;;
13279;SDS011;6708;49.814;8.652;2024-01-30T13:52:40;6.53;;;5.20;;
13279;SDS011;6708;49.814;8.652;2024-01-30T13:55:08;5.03;;;4.63;;
13279;SDS011;6708;49.814;8.652;2024-01-30T13:57:36;5.50;;;4.97;;
13279;SDS011;6708;49.814;8.652;2024-01-30T14:00:08;6.37;;;4.80;;
13279;SDS011;6708;49.814;8.652;2024-01-30T14:02:41;5.27;;;4.67;;
13279;SDS011;6708;49.814;8.652;2024-01-30T14:05:10;6.50;;;5.00;;
13279;SDS011;6708;49.814;8.652;2024-01-30T14:07:38;5.10;;;4.70;;
13279;SDS011;6708;49.814;8.652;2024-01-30T14:10:09;5.77;;;5.20;;
13279;SDS011;6708;49.814;8.652;2024-01-30T14:12:37;5.40;;;4.90;;
13279;SDS011;6708;49.814;8.652;2024-01-30T14:15:08;6.03;;;4.63;;
13279;SDS011;6708;49.814;8.652;2024-01-30T14:17:38;6.13;;;5.10;;
13279;SDS011;6708;49.814;8.652;2024-01-30T14:20:07;5.23;;;4.60;;
13279;SDS011;6708;49.814;8.652;2024-01-30T14:22:36;5.17;;;4.67;;
13279;SDS011;6708;49.814;8.652;2024-01-30T14:25:05;4.80;;;4.30;;
13279;SDS011;6708;49.814;8.652;2024-01-30T14:27:37;5.00;;;4.60;;
13279;SDS011;6708;49.814;8.652;2024-01-30T14:30:09;5.67;;;4.93;;
13279;SDS011;6708;49.814;8.652;2024-01-30T14:32:39;5.60;;;5.10;;
13279;SDS011;6708;49.814;8.652;2024-01-30T14:35:09;6.27;;;4.93;;
13279;SDS011;6708;49.814;8.652;2024-01-30T14:37:38;4.97;;;4.40;;
13279;SDS011;6708;49.814;8.652;2024-01-30T14:40:07;5.57;;;4.70;;
13279;SDS011;6708;49.814;8.652;2024-01-30T14:42:36;6.07;;;4.83;;
13279;SDS011;6708;49.814;8.652;2024-01-30T14:45:05;6.20;;;4.53;;
13279;SDS011;6708;49.814;8.652;2024-01-30T14:47:37;5.53;;;4.67;;
13279;SDS011;6708;49.814;8.652;2024-01-30T14:50:06;4.87;;;4.37;;
13279;SDS011;6708;49.814;8.652;2024-01-30T14:52:35;4.90;;;4.50;;
13279;SDS011;6708;49.814;8.652;2024-01-30T14:55:05;4.73;;;4.33;;
13279;SDS011;6708;49.814;8.652;2024-01-30T14:57:35;4.73;;;4.20;;
13279;SDS011;6708;49.814;8.652;2024-01-30T15:00:05;5.03;;;4.53;;
13279;SDS011;6708;49.814;8.652;2024-01-30T15:02:37;5.30;;;4.80;;
13279;SDS011;6708;49.814;8.652;2024-01-30T15:05:07;4.73;;;4.27;;
13279;SDS011;6708;49.814;8.652;2024-01-30T15:07:36;7.70;;;4.67;;
13279;SDS011;6708;49.814;8.652;2024-01-30T15:10:05;4.50;;;4.13;;
13279;SDS011;6708;49.814;8.652;2024-01-30T15:12:33;5.97;;;4.80;;